createdAt,value
2018-05-08T00:01:43.535Z,101226.19
2018-05-08T00:04:10.263Z,101226.96
2018-05-08T00:06:37.668Z,101217.76
2018-05-08T00:09:05.231Z,101218.70
2018-05-08T00:11:31.983Z,101219.52
2018-05-08T00:13:58.625Z,101217.05
2018-05-08T00:16:25.409Z,101219.81
2018-05-08T00:18:52.885Z,101206.97
2018-05-08T00:21:19.568Z,101213.41
2018-05-08T00:23:46.433Z,101200.61
2018-05-08T00:26:13.393Z,101199.94
2018-05-08T00:28:40.789Z,101195.50
2018-05-08T00:31:07.581Z,101194.81
2018-05-08T00:33:34.200Z,101193.52
2018-05-08T00:36:00.815Z,101196.75
2018-05-08T00:38:27.441Z,101190.59
2018-05-08T00:40:54.304Z,101185.27
2018-05-08T00:43:21.671Z,101180.61
2018-05-08T00:45:48.445Z,101181.99
2018-05-08T00:48:15.879Z,101183.31
2018-05-08T00:50:42.524Z,101184.11
2018-05-08T00:53:10.622Z,101181.19
2018-05-08T00:55:38.003Z,101181.03
2018-05-08T00:58:04.688Z,101171.08
2018-05-08T01:00:31.419Z,101173.38
2018-05-08T01:02:58.121Z,101178.89
2018-05-08T01:05:24.784Z,101170.48
2018-05-08T01:07:51.412Z,101165.11
2018-05-08T01:10:18.085Z,101163.73
2018-05-08T01:12:44.700Z,101169.63
2018-05-08T01:15:11.376Z,101165.87
2018-05-08T01:17:38.777Z,101168.18
2018-05-08T01:20:05.581Z,101165.18
2018-05-08T01:22:33.068Z,101168.36
2018-05-08T01:24:59.698Z,101169.89
2018-05-08T01:27:26.333Z,101168.38
2018-05-08T01:29:53.704Z,101171.92
2018-05-08T01:32:20.571Z,101173.11
2018-05-08T01:34:47.286Z,101161.09
2018-05-08T01:37:14.154Z,101164.86
2018-05-08T01:39:41.026Z,101161.59
2018-05-08T01:42:07.641Z,101165.50
2018-05-08T01:44:34.478Z,101162.58
2018-05-08T01:47:01.120Z,101161.25
2018-05-08T01:49:27.709Z,101152.63
2018-05-08T01:51:55.202Z,101154.46
2018-05-08T01:54:22.003Z,101153.36
2018-05-08T01:56:49.437Z,101152.73
2018-05-08T01:59:16.091Z,101152.34
2018-05-08T02:01:43.506Z,101149.53
2018-05-08T02:04:10.161Z,101147.78
2018-05-08T02:06:36.854Z,101143.02
2018-05-08T02:09:03.467Z,101136.77
2018-05-08T02:11:30.971Z,101136.95
2018-05-08T02:13:57.737Z,101136.27
2018-05-08T02:16:24.388Z,101129.70
2018-05-08T02:18:51.023Z,101125.86
2018-05-08T02:21:17.655Z,101130.84
2018-05-08T02:23:44.352Z,101124.84
2018-05-08T02:26:10.977Z,101125.37
2018-05-08T02:28:38.418Z,101121.58
2018-05-08T02:31:05.823Z,101120.55
2018-05-08T02:33:32.448Z,101123.45
2018-05-08T02:35:59.101Z,101117.42
2018-05-08T02:38:25.732Z,101122.53
2018-05-08T02:40:52.372Z,101125.78
2018-05-08T02:43:19.015Z,101125.37
2018-05-08T02:45:45.664Z,101119.36
2018-05-08T02:48:12.281Z,101117.88
2018-05-08T02:50:39.755Z,101119.17
2018-05-08T02:53:06.380Z,101117.48
2018-05-08T02:55:33.018Z,101110.98
2018-05-08T02:57:59.671Z,101107.83
2018-05-08T03:00:26.291Z,101110.58
2018-05-08T03:02:52.981Z,101112.63
2018-05-08T03:05:19.634Z,101109.95
2018-05-08T03:07:47.032Z,101106.49
2018-05-08T03:10:13.673Z,101103.70
2018-05-08T03:12:40.378Z,101105.55
2018-05-08T03:15:07.164Z,101102.11
2018-05-08T03:17:33.822Z,101104.64
2018-05-08T03:20:00.585Z,101110.66
2018-05-08T03:22:28.101Z,101110.11
2018-05-08T03:24:54.758Z,101100.93
2018-05-08T03:27:21.393Z,101102.27
2018-05-08T03:29:48.074Z,101109.55
2018-05-08T03:32:14.709Z,101105.48
2018-05-08T03:34:42.121Z,101104.61
2018-05-08T03:37:08.752Z,101104.05
2018-05-08T03:39:35.377Z,101108.81
2018-05-08T03:42:02.022Z,101104.91
2018-05-08T03:44:28.697Z,101098.25
2018-05-08T03:46:55.315Z,101100.02
2018-05-08T03:49:21.980Z,101092.41
2018-05-08T03:51:49.392Z,101088.22
2018-05-08T03:54:16.016Z,101090.04
2018-05-08T03:56:42.651Z,101081.48
2018-05-08T03:59:09.343Z,101081.65
2018-05-08T04:01:54.398Z,101084.41
2018-05-08T04:04:39.489Z,101082.53
2018-05-08T04:07:25.329Z,101083.97
2018-05-08T04:09:52.072Z,101081.19
2018-05-08T04:12:19.004Z,101081.88
2018-05-08T04:14:45.620Z,101084.02
2018-05-08T04:17:13.044Z,101084.81
2018-05-08T04:19:39.727Z,101075.30
2018-05-08T04:22:06.378Z,101078.78
2018-05-08T04:24:33.040Z,101076.45
2018-05-08T04:26:59.685Z,101069.64
2018-05-08T04:29:26.297Z,101070.84
2018-05-08T04:31:52.987Z,101070.45
2018-05-08T04:34:19.628Z,101069.29
2018-05-08T04:36:46.237Z,101070.92
2018-05-08T04:39:12.921Z,101068.94
2018-05-08T04:41:40.370Z,101071.18
2018-05-08T04:44:07.851Z,101070.13
2018-05-08T04:46:34.535Z,101068.94
2018-05-08T04:49:01.194Z,101062.38
2018-05-08T04:51:27.833Z,101073.28
2018-05-08T04:53:54.493Z,101067.19
2018-05-08T04:56:21.905Z,101065.59
2018-05-08T04:58:48.614Z,101060.41
2018-05-08T05:01:15.257Z,101063.69
2018-05-08T05:03:41.973Z,101063.48
2018-05-08T05:06:09.408Z,101058.81
2018-05-08T05:08:37.648Z,101064.08
2018-05-08T05:11:04.372Z,101058.22
2018-05-08T05:13:31.020Z,101060.37
2018-05-08T05:15:57.753Z,101059.73
2018-05-08T05:18:24.465Z,101051.64
2018-05-08T05:20:51.880Z,101051.72
2018-05-08T05:23:18.540Z,101050.73
2018-05-08T05:25:45.519Z,101050.34
2018-05-08T05:28:12.159Z,101047.27
2018-05-08T05:30:38.926Z,101047.91
2018-05-08T05:33:05.623Z,101043.06
2018-05-08T05:35:33.144Z,101046.53
2018-05-08T05:38:04.032Z,101043.23
2018-05-08T05:40:30.710Z,101039.08
2018-05-08T05:42:57.440Z,101042.92
2018-05-08T05:45:24.095Z,101041.41
2018-05-08T05:47:50.759Z,101037.01
2018-05-08T05:50:17.420Z,101039.95
2018-05-08T05:52:44.086Z,101043.70
2018-05-08T05:57:41.845Z,101037.52
2018-05-08T06:00:08.620Z,101039.17
2018-05-08T06:02:35.302Z,101036.17
2018-05-08T06:05:02.011Z,101034.30
2018-05-08T06:07:28.655Z,101030.11
2018-05-08T06:09:55.290Z,101028.89
2018-05-08T06:12:21.931Z,101029.20
2018-05-08T06:14:48.689Z,101024.89
2018-05-08T06:17:15.482Z,101027.20
2018-05-08T06:19:42.161Z,101025.06
2018-05-08T06:22:09.642Z,101025.25
2018-05-08T06:24:37.160Z,101023.10
2018-05-08T06:27:04.104Z,101020.19
2018-05-08T06:29:30.761Z,101026.50
2018-05-08T06:31:57.412Z,101026.03
2018-05-08T06:34:24.080Z,101020.19
2018-05-08T06:36:51.620Z,101016.95
2018-05-08T06:39:19.074Z,101014.89
2018-05-08T06:41:45.940Z,101011.13
2018-05-08T06:44:13.364Z,101009.38
2018-05-08T06:46:40.012Z,101014.23
2018-05-08T06:49:06.701Z,101007.50
2018-05-08T06:51:33.360Z,101009.86
2018-05-08T06:54:00.237Z,101005.68
2018-05-08T06:56:26.951Z,101002.61
2018-05-08T06:58:53.592Z,101008.78
2018-05-08T07:01:20.252Z,101009.66
2018-05-08T07:03:46.929Z,101002.18
2018-05-08T07:06:13.608Z,101007.09
2018-05-08T07:08:40.613Z,101005.12
2018-05-08T07:11:07.234Z,101000.20
2018-05-08T07:13:34.791Z,101003.78
2018-05-08T07:16:02.446Z,100998.96
2018-05-08T07:18:29.113Z,101007.95
2018-05-08T07:20:55.829Z,101007.34
2018-05-08T07:23:31.744Z,101004.42
2018-05-08T07:25:58.415Z,101003.47
2018-05-08T07:28:31.384Z,100996.83
2018-05-08T07:30:58.118Z,100991.36
2018-05-08T07:33:25.046Z,100992.64
2018-05-08T07:35:51.758Z,100988.79
2018-05-08T07:38:18.591Z,100989.14
2018-05-08T07:40:45.227Z,100993.52
2018-05-08T07:43:12.646Z,100984.16
2018-05-08T07:45:39.308Z,100986.22
2018-05-08T07:48:06.716Z,100986.78
2018-05-08T07:50:33.420Z,100983.97
2018-05-08T07:53:00.841Z,100989.14
2018-05-08T07:55:27.492Z,100981.88
2018-05-08T07:57:54.147Z,100977.80
2018-05-08T08:00:21.538Z,100975.78
2018-05-08T08:02:48.244Z,100975.55
2018-05-08T08:05:15.652Z,100980.54
2018-05-08T08:07:42.281Z,100974.53
2018-05-08T08:10:09.001Z,100971.16
2018-05-08T08:12:35.957Z,100977.47
2018-05-08T08:15:02.617Z,100970.92
2018-05-08T08:17:29.352Z,100966.97
2018-05-08T08:19:56.034Z,100967.81
2018-05-08T08:22:22.771Z,100965.42
2018-05-08T08:24:49.389Z,100957.47
2018-05-08T08:27:16.049Z,100961.75
2018-05-08T08:29:42.788Z,100958.34
2018-05-08T08:32:09.433Z,100956.13
2018-05-08T08:34:36.927Z,100953.14
2018-05-08T08:37:03.628Z,100954.11
2018-05-08T08:39:31.068Z,100949.98
2018-05-08T08:41:57.836Z,100952.59
2018-05-08T08:44:25.232Z,100947.45
2018-05-08T08:46:51.931Z,100946.38
2018-05-08T08:49:19.285Z,100937.73
2018-05-08T08:51:46.966Z,100936.27
2018-05-08T08:54:13.592Z,100939.73
2018-05-08T08:56:41.047Z,100939.20
2018-05-08T08:59:08.476Z,100931.48
2018-05-08T09:01:35.344Z,100927.34
2018-05-08T09:04:02.955Z,100927.77
2018-05-08T09:06:29.575Z,100929.47
2018-05-08T09:08:56.221Z,100924.10
2018-05-08T09:11:22.911Z,100919.92
2018-05-08T09:13:49.601Z,100914.70
2018-05-08T09:16:16.385Z,100913.80
2018-05-08T09:18:43.050Z,100912.88
2018-05-08T09:21:10.435Z,100901.84
2018-05-08T09:23:37.240Z,100911.91
2018-05-08T09:26:04.614Z,100907.25
2018-05-08T09:28:31.612Z,100893.36
2018-05-08T09:30:58.423Z,100897.53
2018-05-08T09:33:25.230Z,100891.16
2018-05-08T09:35:53.458Z,100887.50
2018-05-08T09:38:20.135Z,100883.19
2018-05-08T09:40:46.808Z,100880.48
2018-05-08T09:43:13.461Z,100870.27
2018-05-08T09:45:40.100Z,100869.12
2018-05-08T09:48:06.797Z,100871.20
2018-05-08T09:50:36.474Z,100869.33
2018-05-08T09:53:03.132Z,100863.09
2018-05-08T09:55:29.748Z,100853.66
2018-05-08T09:57:56.467Z,100848.19
2018-05-08T10:00:23.153Z,100846.05
2018-05-08T10:02:49.769Z,100842.52
2018-05-08T10:05:16.548Z,100841.84
2018-05-08T10:07:43.957Z,100836.63
2018-05-08T10:10:10.617Z,100832.30
2018-05-08T10:12:37.265Z,100830.18
2018-05-08T10:15:03.922Z,100820.91
2018-05-08T10:17:31.484Z,100825.96
2018-05-08T10:19:58.921Z,100827.91
2018-05-08T10:22:27.134Z,100821.53
2018-05-08T10:24:53.777Z,100820.67
2018-05-08T10:27:20.618Z,100819.69
2018-05-08T10:29:47.333Z,100810.72
2018-05-08T10:32:14.736Z,100810.00
2018-05-08T10:34:41.589Z,100805.64
2018-05-08T10:37:08.336Z,100796.51
2018-05-08T10:39:34.992Z,100798.28
2018-05-08T10:42:01.630Z,100789.70
2018-05-08T10:44:28.398Z,100781.72
2018-05-08T10:46:55.846Z,100776.85
2018-05-08T10:49:23.289Z,100781.16
2018-05-08T10:51:49.922Z,100771.98
2018-05-08T10:54:18.060Z,100766.30
2018-05-08T10:56:44.709Z,100769.88
2018-05-08T10:59:11.437Z,100764.80
2018-05-08T11:01:38.394Z,100749.37
2018-05-08T11:04:05.890Z,100758.19
2018-05-08T11:06:32.528Z,100748.23
2018-05-08T11:08:59.221Z,100748.23
2018-05-08T11:11:25.934Z,100749.38
2018-05-08T11:13:53.446Z,100747.44
2018-05-08T11:16:20.129Z,100751.72
2018-05-08T11:18:47.501Z,100752.70
2018-05-08T11:21:14.270Z,100743.52
2018-05-08T11:23:40.961Z,100749.39
2018-05-08T11:26:08.408Z,100742.95
2018-05-08T11:28:35.823Z,100737.48
2018-05-08T11:31:02.469Z,100730.47
2018-05-08T11:33:29.334Z,100727.91
2018-05-08T11:35:55.994Z,100725.76
2018-05-08T11:38:23.441Z,100720.84
2018-05-08T11:40:50.795Z,100732.19
2018-05-08T11:43:18.367Z,100723.59
2018-05-08T11:45:45.815Z,100722.04
2018-05-08T11:48:13.224Z,100720.47
2018-05-08T11:50:39.869Z,100712.66
2018-05-08T11:53:06.533Z,100715.00
2018-05-08T11:55:34.915Z,100709.51
2018-05-08T11:58:01.578Z,100711.47
2018-05-08T12:00:29.006Z,100703.07
2018-05-08T12:02:56.378Z,100707.12
2018-05-08T12:05:23.022Z,100701.22
2018-05-08T12:07:50.424Z,100697.11
2018-05-08T12:10:17.097Z,100693.02
2018-05-08T12:12:43.732Z,100692.13
2018-05-08T12:15:10.508Z,100691.52
2018-05-08T12:17:38.132Z,100690.30
2018-05-08T12:20:04.900Z,100684.45
2018-05-08T12:22:32.404Z,100682.13
2018-05-08T12:24:59.038Z,100693.40
2018-05-08T12:27:26.604Z,100689.50
2018-05-08T12:29:53.348Z,100679.95
2018-05-08T12:32:20.009Z,100678.36
2018-05-08T12:34:46.729Z,100670.51
2018-05-08T12:37:13.542Z,100669.29
2018-05-08T12:39:40.376Z,100653.23
2018-05-08T12:42:07.817Z,100658.06
2018-05-08T12:44:35.244Z,100653.53
2018-05-08T12:47:01.917Z,100659.94
2018-05-08T12:49:29.648Z,100657.53
2018-05-08T12:51:56.303Z,100661.42
2018-05-08T12:54:23.023Z,100661.27
2018-05-08T12:56:49.679Z,100658.25
2018-05-08T12:59:16.476Z,100649.30
2018-05-08T15:16:38.965Z,100512.97
2018-05-08T15:19:06.407Z,100518.06
2018-05-08T15:21:33.357Z,100509.44
2018-05-08T15:24:00.040Z,100503.03
2018-05-08T15:26:27.451Z,100502.66
2018-05-08T15:28:54.616Z,100502.95
2018-05-08T15:31:21.737Z,100489.80
2018-05-08T15:33:48.997Z,100489.53
2018-05-08T15:36:15.887Z,100491.56
2018-05-08T15:38:42.593Z,100487.36
2018-05-08T15:41:09.836Z,100492.67
2018-05-08T15:43:37.182Z,100489.48
2018-05-08T15:46:03.901Z,100491.69
2018-05-08T15:48:31.331Z,100490.96
2018-05-08T15:50:58.064Z,100490.27
2018-05-08T15:53:24.794Z,100487.96
2018-05-08T15:55:51.556Z,100484.44
2018-05-08T15:58:18.463Z,100482.22
2018-05-08T16:00:45.093Z,100472.56
2018-05-08T16:03:11.815Z,100474.97
2018-05-08T16:05:38.460Z,100471.56
2018-05-08T16:08:05.129Z,100470.78
2018-05-08T16:10:49.851Z,100472.13
2018-05-08T16:13:18.832Z,100472.85
2018-05-08T16:15:46.239Z,100472.54
2018-05-08T16:18:12.945Z,100472.00
2018-05-08T16:20:39.599Z,100473.95
2018-05-08T16:23:06.293Z,100474.54
2018-05-08T16:25:33.297Z,100466.58
2018-05-08T16:28:00.038Z,100470.52
2018-05-08T16:30:26.789Z,100469.20
2018-05-08T16:32:53.592Z,100466.91
2018-05-08T16:35:20.327Z,100470.83
2018-05-08T16:37:47.767Z,100467.33
2018-05-08T16:40:14.425Z,100467.74
2018-05-08T16:42:41.815Z,100471.20
2018-05-08T16:45:09.215Z,100472.98
2018-05-08T16:47:36.122Z,100472.84
2018-05-08T16:50:06.334Z,100474.75
2018-05-08T16:52:33.037Z,100469.84
2018-05-08T16:54:59.848Z,100471.25
2018-05-08T16:57:28.360Z,100462.91
2018-05-08T16:59:55.885Z,100465.59
2018-05-08T17:02:22.518Z,100460.31
2018-05-08T17:04:49.225Z,100459.20
2018-05-08T17:07:15.959Z,100459.22
2018-05-08T17:09:43.353Z,100461.74
2018-05-08T17:12:10.093Z,100452.41
2018-05-08T17:14:36.745Z,100455.55
2018-05-08T17:17:03.389Z,100458.31
2018-05-08T17:19:30.101Z,100454.39
2018-05-08T17:21:56.826Z,100457.14
2018-05-08T17:24:24.426Z,100454.44
2018-05-08T17:26:51.235Z,100449.75
2018-05-08T17:29:18.931Z,100454.09
2018-05-08T17:31:45.612Z,100446.65
2018-05-08T17:34:12.282Z,100443.56
2018-05-08T17:36:39.106Z,100447.08
2018-05-08T17:39:06.516Z,100447.72
2018-05-08T17:41:33.189Z,100450.64
2018-05-08T17:44:00.762Z,100448.70
2018-05-08T17:46:28.228Z,100452.26
2018-05-08T17:48:55.728Z,100448.70
2018-05-08T17:51:23.657Z,100448.77
2018-05-08T17:53:51.062Z,100447.45
2018-05-08T17:56:17.724Z,100449.44
2018-05-08T17:58:44.616Z,100446.14
2018-05-08T18:01:11.298Z,100449.27
2018-05-08T18:03:37.969Z,100451.81
2018-05-08T18:06:05.372Z,100450.47
2018-05-08T18:08:34.128Z,100452.45
2018-05-08T18:11:02.397Z,100454.41
2018-05-08T18:13:29.044Z,100455.61
2018-05-08T18:15:55.713Z,100458.34
2018-05-08T18:18:22.488Z,100456.02
2018-05-08T18:20:49.194Z,100457.97
2018-05-08T18:23:15.862Z,100458.17
2018-05-08T18:25:42.690Z,100458.76
2018-05-08T18:28:10.204Z,100463.83
2018-05-08T18:30:36.954Z,100464.44
2018-05-08T18:33:03.917Z,100472.41
2018-05-08T18:35:31.343Z,100470.45
2018-05-08T18:37:59.830Z,100469.48
2018-05-08T18:40:27.695Z,100470.08
2018-05-08T18:42:54.785Z,100474.35
2018-05-08T18:45:22.370Z,100473.77
2018-05-08T18:47:49.707Z,100474.94
2018-05-08T18:50:17.494Z,100476.31
2018-05-08T18:52:44.318Z,100480.39
2018-05-08T18:55:11.078Z,100481.37
2018-05-08T18:57:39.098Z,100487.03
2018-05-08T19:00:11.890Z,100490.33
2018-05-08T19:02:39.077Z,100487.61
2018-05-08T19:05:06.627Z,100487.61
2018-05-08T19:07:34.087Z,100492.88
2018-05-08T19:13:03.545Z,100489.94
2018-05-08T19:15:36.545Z,100501.23
2018-05-08T19:18:04.620Z,100496.55
2018-05-08T19:20:31.602Z,100502.56
2018-05-08T19:22:59.229Z,100499.98
2018-05-08T19:25:26.911Z,100501.13
2018-05-08T19:28:00.618Z,100504.16
2018-05-08T19:30:29.419Z,100504.14
2018-05-08T19:32:56.479Z,100504.34
2018-05-08T19:35:29.921Z,100505.80
2018-05-08T19:38:01.958Z,100511.95
2018-05-08T19:40:29.093Z,100513.45
2018-05-08T19:42:56.556Z,100512.42
2018-05-08T19:45:24.140Z,100517.20
2018-05-08T19:47:51.588Z,100515.20
2018-05-08T19:50:18.379Z,100523.33
2018-05-08T19:52:45.037Z,100518.46
2018-05-08T19:55:11.821Z,100520.11
2018-05-08T19:57:38.560Z,100518.29
2018-05-08T20:00:05.172Z,100515.56
2018-05-08T20:02:32.633Z,100513.55
2018-05-08T20:04:59.368Z,100512.91
2018-05-08T20:07:25.973Z,100522.02
2018-05-08T20:09:52.663Z,100515.80
2018-05-08T20:12:19.339Z,100518.83
2018-05-08T20:14:46.004Z,100518.58
2018-05-08T20:17:12.738Z,100517.20
2018-05-08T20:19:39.415Z,100519.89
2018-05-08T20:22:06.253Z,100516.70
2018-05-08T20:24:33.615Z,100517.23
2018-05-08T20:27:00.253Z,100518.39
2018-05-08T20:29:26.972Z,100511.09
2018-05-08T20:31:54.359Z,100512.03
2018-05-08T20:34:21.197Z,100512.58
2018-05-08T20:36:47.846Z,100513.31
2018-05-08T20:39:14.576Z,100510.09
2018-05-08T20:41:41.314Z,100518.96
2018-05-08T20:44:07.962Z,100516.92
2018-05-08T20:46:34.619Z,100529.89
2018-05-08T20:49:01.438Z,100527.27
2018-05-08T20:51:27.987Z,100536.58
2018-05-08T20:53:54.812Z,100531.70
2018-05-08T20:56:22.366Z,100528.59
2018-05-08T20:58:49.042Z,100533.78
2018-05-08T21:01:15.819Z,100533.53
2018-05-08T21:03:42.452Z,100535.98
2018-05-08T21:06:09.055Z,100533.80
2018-05-08T21:08:35.693Z,100532.05
2018-05-08T21:11:02.285Z,100535.53
2018-05-08T21:13:29.649Z,100544.05
2018-05-08T21:15:56.288Z,100539.90
2018-05-08T21:18:22.930Z,100542.55
2018-05-08T21:20:49.596Z,100541.67
2018-05-08T21:23:16.222Z,100544.05
2018-05-08T21:25:42.854Z,100546.66
2018-05-08T21:28:15.396Z,100549.34
2018-05-08T21:30:48.099Z,100542.05
2018-05-08T21:33:14.709Z,100542.61
2018-05-08T21:35:42.106Z,100545.30
2018-05-08T21:38:08.764Z,100551.14
2018-05-08T21:40:35.345Z,100543.52
2018-05-08T21:43:02.702Z,100544.14
2018-05-08T21:45:30.028Z,100539.48
2018-05-08T21:47:56.617Z,100537.89
2018-05-08T21:50:23.261Z,100537.95
2018-05-08T21:52:49.914Z,100533.17
2018-05-08T21:55:16.559Z,100539.16
2018-05-08T21:57:43.210Z,100539.42
2018-05-08T22:00:11.664Z,100541.11
2018-05-08T22:02:38.306Z,100545.16
2018-05-08T22:05:04.954Z,100545.94
2018-05-08T22:07:31.566Z,100547.44
2018-05-08T22:09:58.197Z,100544.53
2018-05-08T22:12:24.804Z,100549.13
2018-05-08T22:14:52.170Z,100542.13
2018-05-08T22:17:19.544Z,100539.75
2018-05-08T22:19:46.171Z,100539.38
2018-05-08T22:22:12.807Z,100542.52
2018-05-08T22:24:39.365Z,100535.71
2018-05-08T22:27:06.030Z,100544.80
2018-05-08T22:29:32.639Z,100542.40
2018-05-08T22:31:59.376Z,100540.65
2018-05-08T22:34:25.998Z,100537.41
2018-05-08T22:36:52.618Z,100534.86
2018-05-08T22:39:19.308Z,100534.30
2018-05-08T22:41:45.886Z,100534.49
2018-05-08T22:44:12.721Z,100535.55
2018-05-08T22:46:39.315Z,100534.44
2018-05-08T22:49:05.946Z,100546.68
2018-05-08T22:51:32.567Z,100542.38
2018-05-08T22:53:59.509Z,100546.39
2018-05-08T22:56:26.187Z,100550.00
2018-05-08T22:58:52.752Z,100548.70
2018-05-08T23:01:19.274Z,100547.08
2018-05-08T23:03:45.959Z,100546.20
2018-05-08T23:06:12.621Z,100545.24
2018-05-08T23:08:39.246Z,100543.39
2018-05-08T23:11:05.885Z,100543.36
2018-05-08T23:13:32.502Z,100539.33
2018-05-08T23:15:59.327Z,100530.47
2018-05-08T23:18:26.797Z,100533.78
2018-05-08T23:20:54.220Z,100538.97
2018-05-08T23:23:20.896Z,100535.72
2018-05-08T23:25:47.531Z,100528.48
2018-05-08T23:28:14.243Z,100530.61
2018-05-08T23:30:40.843Z,100526.64
2018-05-08T23:33:07.546Z,100521.16
2018-05-08T23:35:34.882Z,100513.16
2018-05-08T23:38:01.506Z,100513.19
2018-05-08T23:40:29.502Z,100504.27
2018-05-08T23:42:56.955Z,100509.27
2018-05-08T23:45:23.652Z,100509.45
2018-05-08T23:47:50.403Z,100504.53
2018-05-08T23:50:17.215Z,100502.02
2018-05-08T23:52:43.944Z,100493.89
2018-05-08T23:55:10.594Z,100495.78
2018-05-08T23:57:37.357Z,100496.90
